Observation Tools

Crape myrtle Photo courtesy of Steve Baskauf, Vanderbilt University, bioimages.vanderbilt.edu.

Crape myrtle (Lagerstroemia indica)


Plant Family: Loosestrife (Lythraceae)
Project BudBurst Plant Group: Deciduous Trees and Shrubs

Identification Hints: Crape myrtles are very popular as landscape trees in the southeastern United States. They come in a variety of colors, most commonly shades of pink, red, and white. Crape myrtles are deciduoustrees that generally have multiple stems and very showy flowers that have crinkled petals.

Did you Know? The United States National Arboretum hasa Quick Guide Chart to many common varieties of Crape myrtle. You can learn about flower color, bark, height, growth habit and fall color of over 30 varieties.The origins of many crape myrtle varieties are India, Asia, and parts of northern Australia. Crape myrtles are very popular in the southeastern United States and are sometimes nicknamed the "lilac of the South".


Live Map for Crape myrtle

Other years available for viewing:

Below you can view all observations that have been reported in for Crape myrtle (If the map below is empty then there have not been any observations reported.)

Use the navigation buttons on the left to zoom in/out and pan around. Click on each place marker to get detail information about that observation.

Leaf/Needles/Stalk = Leaf/Needles/Stalk Flower = Flower Pollen = Pollen Fruiting = Fruiting Color = Color

--Back to Top--

close help window button

The table below displays all the data that has been submitted to Project BudBurst. By default, the data is sorted by the date on which the phenophase occurred. Clicking the up and down arrows next to each column name allows you to sort on any value. If there have been more than 10 observations submitted, you can choose how many to display at a time using the "Show __ entries" control. You can also page through the data using the previous and next buttons at the bottom right of the table.

The Search box allows you to search all of the data. Searching by date, species, phenophase, etc. is easy—just start typing and the table will immediately change to contain only observations that contain your search phrase. Do you want to see only 2012 observations? Just type "2012" in the search box. Only want to see maples? Enter "Acer." You can combine searches, too! Searching for "acer 2012" will narrow your results to only the maples that were observed in 2012 (assuming that any observations exist, of course).

Once you have your results in the order desired, you can use any of the buttons above the search box to copy the results to the clipboard; save them as a text, or spreadsheet; or even print them from your browser!

Observational data for Crape myrtle:

help button
Date Contributor Common Name Species Phenophase Latitude Longitude Obs#
Fri Jan 01 00:00:00 GMT 2010 anders Crape myrtle Lagerstroemia indica First Leaf 45.000000000000000 -104.000000000000000 10642
Mon Feb 01 00:00:00 GMT 2010 anders Crape myrtle Lagerstroemia indica First Flower 45.000000000000000 -104.000000000000000 10643
Mon Feb 01 00:00:00 GMT 2010 anders Crape myrtle Lagerstroemia indica First Flower 45.000000000000000 -104.000000000000000 10644
Fri Jan 01 00:00:00 GMT 2010 anders Crape myrtle Lagerstroemia indica Full Flower 45.000000000000000 -104.000000000000000 10646
Mon Mar 01 00:00:00 GMT 2010 anders Crape myrtle Lagerstroemia indica Full Flower 45.000000000000000 -104.000000000000000 10645
Mon Apr 09 00:00:00 GMT 2012 srseavey Crape myrtle Lagerstroemia indica Leaves Unfolding (Early) 36.866200000000000 -76.059600000000000 14867
Thu Sep 27 00:00:00 GMT 2012 snewman14 Crape myrtle Lagerstroemia indica Flowers (Late) 33.650100000000000 -97.203600000000000 16758
Mon Oct 15 00:00:00 GMT 2012 snewman14 Crape myrtle Lagerstroemia indica Fruit (Early) 38.926200000000000 -77.053100000000000 17016
Tue Apr 02 00:00:00 GMT 2013 askinner Crape myrtle Lagerstroemia indica Flowers (Early) 37.225200000000000 -80.420400000000000 18456
Wed Apr 10 00:00:00 GMT 2013 cbleacher16 Crape myrtle Lagerstroemia indica Bud Burst 33.960000000000000 -84.276800000000000 18764
Tue Apr 09 00:00:00 GMT 2013 MiaCora Crape myrtle Lagerstroemia indica Bud Burst 35.047100000000000 -78.951700000000000 18843
Fri Apr 12 00:00:00 GMT 2013 MiaCora Crape myrtle Lagerstroemia indica First Leaf 35.047100000000000 -78.951700000000000 18844
Sat Apr 06 00:00:00 GMT 2013 aschlader Crape myrtle Lagerstroemia indica Bud Burst 33.967400000000000 -84.285000000000000 18890
Fri Apr 12 00:00:00 GMT 2013 aschlader Crape myrtle Lagerstroemia indica First Leaf 33.967400000000000 -84.285000000000000 18891
Sat Mar 30 00:00:00 GMT 2013 katewinslow Crape myrtle Lagerstroemia indica Bud Burst 33.784500000000000 -84.349000000000000 18955
Fri Apr 05 00:00:00 GMT 2013 katewinslow Crape myrtle Lagerstroemia indica First Leaf 33.784500000000000 -84.349000000000000 18956
Sun Apr 14 00:00:00 GMT 2013 katewinslow Crape myrtle Lagerstroemia indica All Leaves Unfolded 33.784500000000000 -84.349000000000000 18957
Wed Apr 17 00:00:00 GMT 2013 greenbean Crape myrtle Lagerstroemia indica First Leaf 37.579600000000000 -77.462000000000000 19012
Mon Apr 01 00:00:00 GMT 2013 scerniglia16 Crape myrtle Lagerstroemia indica Leaves Unfolding (Middle) 34.020800000000000 -84.245300000000000 19218
Sat May 04 00:00:00 GMT 2013 Mango55 Crape myrtle Lagerstroemia indica Bud Burst 40.208200000000000 -76.771900000000000 20008
Wed May 08 00:00:00 GMT 2013 Mango55 Crape myrtle Lagerstroemia indica First Leaf 40.208200000000000 -76.771900000000000 20297
Mon May 13 00:00:00 GMT 2013 Mango55 Crape myrtle Lagerstroemia indica All Leaves Unfolded 40.208200000000000 -76.771900000000000 20298
Wed Apr 17 00:00:00 GMT 2013 Angelyn Crape myrtle Lagerstroemia indica Bud Burst 35.619100000000000 -82.765100000000000 20774
Sat Apr 20 00:00:00 GMT 2013 Angelyn Crape myrtle Lagerstroemia indica First Leaf 35.619100000000000 -82.765100000000000 20775
Thu Apr 25 00:00:00 GMT 2013 Angelyn Crape myrtle Lagerstroemia indica All Leaves Unfolded 35.619100000000000 -82.765100000000000 20776
Wed Jul 17 00:00:00 GMT 2013 larag Crape myrtle Lagerstroemia indica Flowers (Middle) 32.801900000000000 -96.766000000000000 21601
Mon Jul 22 00:00:00 GMT 2013 Angelyn Crape myrtle Lagerstroemia indica First Flower 35.619100000000000 -82.765100000000000 21636
Sun Sep 29 00:00:00 GMT 2013 rkclark Crape myrtle Lagerstroemia indica Fruit (Middle) 35.869200000000000 -78.727900000000000 22306
Sun Oct 20 00:00:00 GMT 2013 kweatherspoon0001 Crape myrtle Lagerstroemia indica Leaves Dropping (Middle) 36.621900000000000 -88.351800000000000 22718
Tue Nov 05 00:00:00 GMT 2013 nelsen15c Crape myrtle Lagerstroemia indica Leaves Dropping (Early) 36.218800000000000 -81.680600000000000 22965
Tue Nov 05 00:00:00 GMT 2013 Nectarlane Crape myrtle Lagerstroemia indica 50% Color 40.168200000000000 -74.813500000000000 23121
Fri Aug 02 00:00:00 GMT 2013 Angelyn Crape myrtle Lagerstroemia indica Full Flower 35.619100000000000 -82.765100000000000 25620
Sat Mar 15 00:00:00 GMT 2014 pforemanshe Crape myrtle Lagerstroemia indica Bud Burst 30.726900000000000 -95.558800000000000 27518
Tue Mar 25 00:00:00 GMT 2014 pforemanshe Crape myrtle Lagerstroemia indica First Leaf 30.726900000000000 -95.558800000000000 27519
Wed Apr 09 00:00:00 GMT 2014 alpuckett Crape myrtle Lagerstroemia indica Leaves Unfolding (None) 37.254850000000000 -85.819810000000000 28413
Wed Apr 09 00:00:00 GMT 2014 alpuckett Crape myrtle Lagerstroemia indica Leaves Changing Color (None) 37.254850000000000 -85.819810000000000 28414
Wed Apr 09 00:00:00 GMT 2014 alpuckett Crape myrtle Lagerstroemia indica Leaves Dropping (None) 37.254850000000000 -85.819810000000000 28415
Wed Apr 09 00:00:00 GMT 2014 alpuckett Crape myrtle Lagerstroemia indica Flowers (Early) 37.254850000000000 -85.819810000000000 28416
Wed Apr 09 00:00:00 GMT 2014 alpuckett Crape myrtle Lagerstroemia indica Fruit (None) 37.254850000000000 -85.819810000000000 28417
Wed May 21 00:00:00 GMT 2014 briecmarie Crape myrtle Lagerstroemia indica Leaves Unfolding (Middle) 34.151058000000000 -77.888925000000000 32694
Wed May 21 00:00:00 GMT 2014 briecmarie Crape myrtle Lagerstroemia indica Leaves Changing Color (Early) 34.151058000000000 -77.888925000000000 32695
Wed May 21 00:00:00 GMT 2014 briecmarie Crape myrtle Lagerstroemia indica Leaves Dropping (None) 34.151058000000000 -77.888925000000000 32696
Wed May 21 00:00:00 GMT 2014 briecmarie Crape myrtle Lagerstroemia indica Flowers (Early) 34.151058000000000 -77.888925000000000 32697
Wed May 21 00:00:00 GMT 2014 briecmarie Crape myrtle Lagerstroemia indica Fruit (None) 34.151058000000000 -77.888925000000000 32698
Fri May 23 00:00:00 GMT 2014 labellaflora Crape myrtle Lagerstroemia indica Bud Burst 33.886890000000000 -117.834920000000000 32905
Sat Jun 21 00:00:00 GMT 2014 JohnnaRoose Crape myrtle Lagerstroemia indica Leaves Unfolding (Late) 30.648909000000000 -91.129725000000000 34201
Sat Jun 21 00:00:00 GMT 2014 JohnnaRoose Crape myrtle Lagerstroemia indica Leaves Changing Color (None) 30.648909000000000 -91.129725000000000 34202
Sat Jun 21 00:00:00 GMT 2014 JohnnaRoose Crape myrtle Lagerstroemia indica Leaves Dropping (None) 30.648909000000000 -91.129725000000000 34203
Sat Jun 21 00:00:00 GMT 2014 JohnnaRoose Crape myrtle Lagerstroemia indica Flowers (Middle) 30.648909000000000 -91.129725000000000 34204
Sat Jun 21 00:00:00 GMT 2014 JohnnaRoose Crape myrtle Lagerstroemia indica Fruit (None) 30.648909000000000 -91.129725000000000 34205
Sun Sep 14 00:00:00 GMT 2014 howardkt Crape myrtle Lagerstroemia indica All Leaves Unfolded 35.046960000000000 -97.396500000000000 35383
Sun Sep 14 00:00:00 GMT 2014 howardkt Crape myrtle Lagerstroemia indica Leaves Unfolding (None) 35.046960000000000 -97.396500000000000 35384
Sun Sep 14 00:00:00 GMT 2014 howardkt Crape myrtle Lagerstroemia indica Leaves Changing Color (None) 35.046960000000000 -97.396500000000000 35385
Sun Sep 14 00:00:00 GMT 2014 howardkt Crape myrtle Lagerstroemia indica Leaves Dropping (None) 35.046960000000000 -97.396500000000000 35386
Sun Sep 14 00:00:00 GMT 2014 howardkt Crape myrtle Lagerstroemia indica Flowers (Late) 35.046960000000000 -97.396500000000000 35387
Sun Sep 14 00:00:00 GMT 2014 howardkt Crape myrtle Lagerstroemia indica Fruit (None) 35.046960000000000 -97.396500000000000 35388
Fri Sep 19 00:00:00 GMT 2014 Edwardsharp56_Carlisle_School_reporter4 Crape myrtle Lagerstroemia indica Leaves Unfolding (None) 36.657368000000000 -79.802198000000000 35470
Fri Sep 19 00:00:00 GMT 2014 Edwardsharp56_Carlisle_School_reporter4 Crape myrtle Lagerstroemia indica Leaves Changing Color (None) 36.657368000000000 -79.802198000000000 35471
Fri Sep 19 00:00:00 GMT 2014 Edwardsharp56_Carlisle_School_reporter4 Crape myrtle Lagerstroemia indica Leaves Dropping (None) 36.657368000000000 -79.802198000000000 35472
Fri Sep 19 00:00:00 GMT 2014 Edwardsharp56_Carlisle_School_reporter4 Crape myrtle Lagerstroemia indica Flowers (Middle) 36.657368000000000 -79.802198000000000 35473
Fri Sep 19 00:00:00 GMT 2014 Edwardsharp56_Carlisle_School_reporter4 Crape myrtle Lagerstroemia indica Fruit (None) 36.657368000000000 -79.802198000000000 35474
Sat Sep 20 00:00:00 GMT 2014 richardsonfamily Crape myrtle Lagerstroemia indica Leaves Unfolding (Late) 38.678520000000000 -121.773300000000000 35488
Sat Sep 20 00:00:00 GMT 2014 richardsonfamily Crape myrtle Lagerstroemia indica Leaves Changing Color (None) 38.678520000000000 -121.773300000000000 35489
Sat Sep 20 00:00:00 GMT 2014 richardsonfamily Crape myrtle Lagerstroemia indica Leaves Dropping (Early) 38.678520000000000 -121.773300000000000 35490
Sat Sep 20 00:00:00 GMT 2014 richardsonfamily Crape myrtle Lagerstroemia indica Flowers (Late) 38.678520000000000 -121.773300000000000 35491
Sat Sep 20 00:00:00 GMT 2014 richardsonfamily Crape myrtle Lagerstroemia indica Fruit (Middle) 38.678520000000000 -121.773300000000000 35492
Mon Sep 22 00:00:00 GMT 2014 Edwardsharp56_Carlisle_School_reporter4 Crape myrtle Lagerstroemia indica Leaves Unfolding (None) 36.659840000000000 -79.797210000000000 35597
Mon Sep 22 00:00:00 GMT 2014 Edwardsharp56_Carlisle_School_reporter4 Crape myrtle Lagerstroemia indica Leaves Changing Color (None) 36.659840000000000 -79.797210000000000 35598
Mon Sep 22 00:00:00 GMT 2014 Edwardsharp56_Carlisle_School_reporter4 Crape myrtle Lagerstroemia indica Leaves Dropping (None) 36.659840000000000 -79.797210000000000 35599
Mon Sep 22 00:00:00 GMT 2014 Edwardsharp56_Carlisle_School_reporter4 Crape myrtle Lagerstroemia indica Flowers (None) 36.659840000000000 -79.797210000000000 35600
Mon Sep 22 00:00:00 GMT 2014 Edwardsharp56_Carlisle_School_reporter4 Crape myrtle Lagerstroemia indica Fruit (None) 36.659840000000000 -79.797210000000000 35601
Tue Oct 07 00:00:00 GMT 2014 jlsnyder335_4H_reporter25 Crape myrtle Lagerstroemia indica Leaves Unfolding (None) 36.041550000000000 -79.377100000000000 36332
Tue Oct 07 00:00:00 GMT 2014 jlsnyder335_4H_reporter25 Crape myrtle Lagerstroemia indica Leaves Changing Color (Middle) 36.041550000000000 -79.377100000000000 36333
Tue Oct 07 00:00:00 GMT 2014 jlsnyder335_4H_reporter25 Crape myrtle Lagerstroemia indica Leaves Dropping (Early) 36.041550000000000 -79.377100000000000 36334
Tue Oct 07 00:00:00 GMT 2014 jlsnyder335_4H_reporter25 Crape myrtle Lagerstroemia indica Flowers (Late) 36.041550000000000 -79.377100000000000 36335
Tue Oct 07 00:00:00 GMT 2014 jlsnyder335_4H_reporter25 Crape myrtle Lagerstroemia indica Fruit (Early) 36.041550000000000 -79.377100000000000 36336
Tue Sep 30 00:00:00 GMT 2014 howardkt Crape myrtle Lagerstroemia indica Leaves Unfolding (None) 40.000000000000000 -100.000000000000000 36962
Tue Sep 30 00:00:00 GMT 2014 howardkt Crape myrtle Lagerstroemia indica Leaves Changing Color (None) 40.000000000000000 -100.000000000000000 36963
Tue Sep 30 00:00:00 GMT 2014 howardkt Crape myrtle Lagerstroemia indica Leaves Dropping (Early) 40.000000000000000 -100.000000000000000 36964
Tue Sep 30 00:00:00 GMT 2014 howardkt Crape myrtle Lagerstroemia indica Flowers (None) 40.000000000000000 -100.000000000000000 36965
Tue Sep 30 00:00:00 GMT 2014 howardkt Crape myrtle Lagerstroemia indica Fruit (None) 40.000000000000000 -100.000000000000000 36966
Wed Oct 22 00:00:00 GMT 2014 chriskeen Crape myrtle Lagerstroemia indica Leaves Unfolding (None) 36.659840000000000 -79.797210000000000 39200
Wed Oct 22 00:00:00 GMT 2014 chriskeen Crape myrtle Lagerstroemia indica Leaves Changing Color (None) 36.659840000000000 -79.797210000000000 39201
Wed Oct 22 00:00:00 GMT 2014 chriskeen Crape myrtle Lagerstroemia indica Leaves Dropping (None) 36.659840000000000 -79.797210000000000 39202
Wed Oct 22 00:00:00 GMT 2014 chriskeen Crape myrtle Lagerstroemia indica Flowers (None) 36.659840000000000 -79.797210000000000 39203
Wed Oct 22 00:00:00 GMT 2014 chriskeen Crape myrtle Lagerstroemia indica Fruit (None) 36.659840000000000 -79.797210000000000 39204
Fri Oct 31 00:00:00 GMT 2014 chriskeen Crape myrtle Lagerstroemia indica Leaves Unfolding (None) 36.659500000000000 -79.795845000000000 39592
Fri Oct 31 00:00:00 GMT 2014 chriskeen Crape myrtle Lagerstroemia indica Leaves Changing Color (None) 36.659500000000000 -79.795845000000000 39593
Fri Oct 31 00:00:00 GMT 2014 chriskeen Crape myrtle Lagerstroemia indica Leaves Dropping (None) 36.659500000000000 -79.795845000000000 39594
Fri Oct 31 00:00:00 GMT 2014 chriskeen Crape myrtle Lagerstroemia indica Flowers (None) 36.659500000000000 -79.795845000000000 39595
Fri Oct 31 00:00:00 GMT 2014 chriskeen Crape myrtle Lagerstroemia indica Fruit (None) 36.659500000000000 -79.795845000000000 39596
Tue Feb 10 00:00:00 GMT 2015 richardsonfamily Crape myrtle Lagerstroemia indica Leaves Unfolding (None) 38.678520000000000 -121.773300000000000 43622
Tue Feb 10 00:00:00 GMT 2015 richardsonfamily Crape myrtle Lagerstroemia indica Leaves Changing Color (None) 38.678520000000000 -121.773300000000000 43623
Tue Feb 10 00:00:00 GMT 2015 richardsonfamily Crape myrtle Lagerstroemia indica Leaves Dropping (None) 38.678520000000000 -121.773300000000000 43624
Tue Feb 10 00:00:00 GMT 2015 richardsonfamily Crape myrtle Lagerstroemia indica Flowers (None) 38.678520000000000 -121.773300000000000 43625
Tue Feb 10 00:00:00 GMT 2015 richardsonfamily Crape myrtle Lagerstroemia indica Fruit (None) 38.678520000000000 -121.773300000000000 43626
Mon Feb 23 00:00:00 GMT 2015 megg4 Crape myrtle Lagerstroemia indica 50% Leaf Fall 32.858180000000000 -96.762120000000000 44184
Wed Mar 11 00:00:00 GMT 2015 tahoebagel Crape myrtle Lagerstroemia indica 50% Leaf Fall 37.437920000000000 -122.125750000000000 44796
Wed Mar 11 00:00:00 GMT 2015 tahoebagel Crape myrtle Lagerstroemia indica Bud Burst 37.437920000000000 -122.125750000000000 44795
Wed Mar 18 00:00:00 GMT 2015 mobla26 Crape myrtle Lagerstroemia indica Leaves Unfolding (Early) 34.098088000000000 -118.289967000000000 45078
Wed Mar 18 00:00:00 GMT 2015 mobla26 Crape myrtle Lagerstroemia indica Leaves Changing Color (None) 34.098088000000000 -118.289967000000000 45079
Wed Mar 18 00:00:00 GMT 2015 mobla26 Crape myrtle Lagerstroemia indica Leaves Dropping (None) 34.098088000000000 -118.289967000000000 45080
Wed Mar 18 00:00:00 GMT 2015 mobla26 Crape myrtle Lagerstroemia indica Flowers (None) 34.098088000000000 -118.289967000000000 45081
Wed Mar 18 00:00:00 GMT 2015 mobla26 Crape myrtle Lagerstroemia indica Fruit (None) 34.098088000000000 -118.289967000000000 45082
Sun Mar 22 00:00:00 GMT 2015 richardsonfamily Crape myrtle Lagerstroemia indica First Leaf 38.678520000000000 -121.773300000000000 45282
Wed Mar 25 00:00:00 GMT 2015 jimlynnenright Crape myrtle Lagerstroemia indica Leaves Unfolding (Early) 32.343190000000000 -106.746290000000000 45319
Wed Mar 25 00:00:00 GMT 2015 jimlynnenright Crape myrtle Lagerstroemia indica Leaves Changing Color (None) 32.343190000000000 -106.746290000000000 45320
Wed Mar 25 00:00:00 GMT 2015 jimlynnenright Crape myrtle Lagerstroemia indica Leaves Dropping (None) 32.343190000000000 -106.746290000000000 45321
Wed Mar 25 00:00:00 GMT 2015 jimlynnenright Crape myrtle Lagerstroemia indica Flowers (None) 32.343190000000000 -106.746290000000000 45322
Wed Mar 25 00:00:00 GMT 2015 jimlynnenright Crape myrtle Lagerstroemia indica Fruit (None) 32.343190000000000 -106.746290000000000 45323
Wed Mar 25 00:00:00 GMT 2015 jimlynnenright Crape myrtle Lagerstroemia indica First Leaf 32.343190000000000 -106.746290000000000 45343
Sun Mar 29 00:00:00 GMT 2015 richardsonfamily Crape myrtle Lagerstroemia indica All Leaves Unfolded 38.678520000000000 -121.773300000000000 45466
Tue Apr 14 00:00:00 GMT 2015 Angelyn Crape myrtle Lagerstroemia indica Bud Burst 35.619100000000000 -82.765100000000000 46876
Fri Apr 17 00:00:00 GMT 2015 Angelyn Crape myrtle Lagerstroemia indica First Leaf 35.619100000000000 -82.765100000000000 46877
Thu Apr 23 00:00:00 GMT 2015 megg4 Crape myrtle Lagerstroemia indica Leaves Unfolding (Early) 32.858180000000000 -96.762120000000000 47645
Thu Apr 23 00:00:00 GMT 2015 megg4 Crape myrtle Lagerstroemia indica Leaves Changing Color (Early) 32.858180000000000 -96.762120000000000 47646
Thu Apr 23 00:00:00 GMT 2015 megg4 Crape myrtle Lagerstroemia indica Leaves Dropping (None) 32.858180000000000 -96.762120000000000 47647
Thu Apr 23 00:00:00 GMT 2015 megg4 Crape myrtle Lagerstroemia indica Flowers (None) 32.858180000000000 -96.762120000000000 47648
Thu Apr 23 00:00:00 GMT 2015 megg4 Crape myrtle Lagerstroemia indica Fruit (None) 32.858180000000000 -96.762120000000000 47649
Fri Jun 06 00:00:00 GMT 2014 megg4 Crape myrtle Lagerstroemia indica Full Flower 32.858180000000000 -96.762120000000000 47650
Mon Nov 10 00:00:00 GMT 2014 megg4 Crape myrtle Lagerstroemia indica 50% Color 32.858180000000000 -96.762120000000000 47651
Fri Apr 10 00:00:00 GMT 2015 sevridge Crape myrtle Lagerstroemia indica 50% Color 32.837280000000000 -96.895810000000000 47766
Fri Apr 03 00:00:00 GMT 2015 lillianondus Crape myrtle Lagerstroemia indica First Leaf 33.991338000000000 -81.028290000000000 48098
Mon Apr 06 00:00:00 GMT 2015 lillianondus Crape myrtle Lagerstroemia indica All Leaves Unfolded 33.991338000000000 -81.028290000000000 48099
Sat Jul 04 00:00:00 GMT 2015 richardsonfamily Crape myrtle Lagerstroemia indica First Flower 38.678520000000000 -121.773300000000000 51644
Thu Jul 16 00:00:00 GMT 2015 richardsonfamily Crape myrtle Lagerstroemia indica Full Flower 38.678520000000000 -121.773300000000000 51823
Fri Jul 17 00:00:00 GMT 2015 Angelyn Crape myrtle Lagerstroemia indica First Flower 35.619100000000000 -82.765100000000000 51860
Fri Jul 31 00:00:00 GMT 2015 Angelyn Crape myrtle Lagerstroemia indica Full Flower 35.619100000000000 -82.765100000000000 52135
Tue Aug 11 00:00:00 GMT 2015 herbs_heal Crape myrtle Lagerstroemia indica Leaves Unfolding (Late) 32.776660000000000 -96.796990000000000 52184
Tue Aug 11 00:00:00 GMT 2015 herbs_heal Crape myrtle Lagerstroemia indica Leaves Changing Color (Middle) 32.776660000000000 -96.796990000000000 52185
Tue Aug 11 00:00:00 GMT 2015 herbs_heal Crape myrtle Lagerstroemia indica Leaves Dropping (Early) 32.776660000000000 -96.796990000000000 52186
Tue Aug 11 00:00:00 GMT 2015 herbs_heal Crape myrtle Lagerstroemia indica Flowers (Middle) 32.776660000000000 -96.796990000000000 52187
Tue Aug 11 00:00:00 GMT 2015 herbs_heal Crape myrtle Lagerstroemia indica Fruit (None) 32.776660000000000 -96.796990000000000 52188
Tue Aug 11 00:00:00 GMT 2015 arid07 Crape myrtle Lagerstroemia indica Leaves Unfolding (Late) 33.017950000000000 -96.621300000000000 52189
Tue Aug 11 00:00:00 GMT 2015 arid07 Crape myrtle Lagerstroemia indica Leaves Changing Color (None) 33.017950000000000 -96.621300000000000 52190
Tue Aug 11 00:00:00 GMT 2015 arid07 Crape myrtle Lagerstroemia indica Leaves Dropping (None) 33.017950000000000 -96.621300000000000 52191
Tue Aug 11 00:00:00 GMT 2015 arid07 Crape myrtle Lagerstroemia indica Flowers (Middle) 33.017950000000000 -96.621300000000000 52192
Tue Aug 11 00:00:00 GMT 2015 arid07 Crape myrtle Lagerstroemia indica Fruit (Early) 33.017950000000000 -96.621300000000000 52193
Thu Sep 03 00:00:00 GMT 2015 beenature Crape myrtle Lagerstroemia indica Leaves Unfolding (None) 34.088290000000000 -84.641820000000000 52738
Thu Sep 03 00:00:00 GMT 2015 beenature Crape myrtle Lagerstroemia indica Leaves Changing Color (Early) 34.088290000000000 -84.641820000000000 52739
Thu Sep 03 00:00:00 GMT 2015 beenature Crape myrtle Lagerstroemia indica Leaves Dropping (None) 34.088290000000000 -84.641820000000000 52740
Thu Sep 03 00:00:00 GMT 2015 beenature Crape myrtle Lagerstroemia indica Flowers (Late) 34.088290000000000 -84.641820000000000 52741
Thu Sep 03 00:00:00 GMT 2015 beenature Crape myrtle Lagerstroemia indica Fruit (Middle) 34.088290000000000 -84.641820000000000 52742
Wed Sep 02 00:00:00 GMT 2015 beenature Crape myrtle Lagerstroemia indica First Ripe Fruit 34.090600000000000 -84.641800000000000 52737
Thu Oct 01 00:00:00 GMT 2015 katemueller Crape myrtle Lagerstroemia indica Full Flower 33.053600000000000 -97.054250000000000 53798
Mon Oct 19 00:00:00 GMT 2015 robinv1_Washington_College_reporter57 Crape myrtle Lagerstroemia indica Leaves Unfolding (None) 39.219230000000000 -76.069650000000000 54449
Mon Oct 19 00:00:00 GMT 2015 robinv1_Washington_College_reporter57 Crape myrtle Lagerstroemia indica Leaves Changing Color (None) 39.219230000000000 -76.069650000000000 54450
Mon Oct 19 00:00:00 GMT 2015 robinv1_Washington_College_reporter57 Crape myrtle Lagerstroemia indica Leaves Dropping (None) 39.219230000000000 -76.069650000000000 54451
Mon Oct 19 00:00:00 GMT 2015 robinv1_Washington_College_reporter57 Crape myrtle Lagerstroemia indica Flowers (None) 39.219230000000000 -76.069650000000000 54452
Mon Oct 19 00:00:00 GMT 2015 robinv1_Washington_College_reporter57 Crape myrtle Lagerstroemia indica Fruit (None) 39.219230000000000 -76.069650000000000 54453
Wed Oct 21 00:00:00 GMT 2015 micklowclass_Ford_ES_reporter1 Crape myrtle Lagerstroemia indica Bud Burst 33.987180000000000 -84.714650000000000 54773
Fri Oct 02 00:00:00 GMT 2015 micklowclass_Ford_ES_reporter1 Crape myrtle Lagerstroemia indica 50% Color 33.987180000000000 -84.714650000000000 54774
Fri Oct 02 00:00:00 GMT 2015 micklowclass_Ford_ES_reporter5 Crape myrtle Lagerstroemia indica 50% Color 33.987180000000000 -84.714650000000000 54785
Wed Oct 21 00:00:00 GMT 2015 micklowclass_Ford_ES_reporter5 Crape myrtle Lagerstroemia indica 50% Leaf Fall 33.987180000000000 -84.714650000000000 54786
Sun Oct 25 00:00:00 GMT 2015 Angelyn Crape myrtle Lagerstroemia indica 50% Color 35.619100000000000 -82.765100000000000 54964
Mon Oct 26 00:00:00 GMT 2015 smfitzhugh_The_Village_School__reporter19 Crape myrtle Lagerstroemia indica Bud Burst 29.745700000000000 -95.617720000000000 55037
Wed Nov 18 00:00:00 GMT 2015 micklowclass_Ford_ES_reporter1 Crape myrtle Lagerstroemia indica 50% Leaf Fall 33.987180000000000 -84.714650000000000 57577
Mon Sep 28 00:00:00 GMT 2015 robinv1_Washington_College_reporter57 Crape myrtle Lagerstroemia indica Leaves Unfolding (None) 39.219005000000000 -76.069733000000000 58948
Mon Sep 28 00:00:00 GMT 2015 robinv1_Washington_College_reporter57 Crape myrtle Lagerstroemia indica Leaves Changing Color (None) 39.219005000000000 -76.069733000000000 58949
Mon Sep 28 00:00:00 GMT 2015 robinv1_Washington_College_reporter57 Crape myrtle Lagerstroemia indica Leaves Dropping (None) 39.219005000000000 -76.069733000000000 58950
Mon Sep 28 00:00:00 GMT 2015 robinv1_Washington_College_reporter57 Crape myrtle Lagerstroemia indica Flowers (None) 39.219005000000000 -76.069733000000000 58951
Mon Sep 28 00:00:00 GMT 2015 robinv1_Washington_College_reporter57 Crape myrtle Lagerstroemia indica Fruit (None) 39.219005000000000 -76.069733000000000 58952
Mon Oct 05 00:00:00 GMT 2015 robinv1_Washington_College_reporter57 Crape myrtle Lagerstroemia indica Leaves Unfolding (None) 39.219005000000000 -76.069733000000000 58953
Mon Oct 05 00:00:00 GMT 2015 robinv1_Washington_College_reporter57 Crape myrtle Lagerstroemia indica Leaves Changing Color (None) 39.219005000000000 -76.069733000000000 58954
Mon Oct 05 00:00:00 GMT 2015 robinv1_Washington_College_reporter57 Crape myrtle Lagerstroemia indica Leaves Dropping (None) 39.219005000000000 -76.069733000000000 58955
Mon Oct 05 00:00:00 GMT 2015 robinv1_Washington_College_reporter57 Crape myrtle Lagerstroemia indica Flowers (None) 39.219005000000000 -76.069733000000000 58956
Mon Oct 05 00:00:00 GMT 2015 robinv1_Washington_College_reporter57 Crape myrtle Lagerstroemia indica Fruit (None) 39.219005000000000 -76.069733000000000 58957
Mon Oct 12 00:00:00 GMT 2015 robinv1_Washington_College_reporter57 Crape myrtle Lagerstroemia indica Leaves Unfolding (None) 39.219005000000000 -76.069733000000000 58958
Mon Oct 12 00:00:00 GMT 2015 robinv1_Washington_College_reporter57 Crape myrtle Lagerstroemia indica Leaves Changing Color (None) 39.219005000000000 -76.069733000000000 58959
Mon Oct 12 00:00:00 GMT 2015 robinv1_Washington_College_reporter57 Crape myrtle Lagerstroemia indica Leaves Dropping (None) 39.219005000000000 -76.069733000000000 58960
Mon Oct 12 00:00:00 GMT 2015 robinv1_Washington_College_reporter57 Crape myrtle Lagerstroemia indica Flowers (None) 39.219005000000000 -76.069733000000000 58961
Mon Oct 12 00:00:00 GMT 2015 robinv1_Washington_College_reporter57 Crape myrtle Lagerstroemia indica Fruit (None) 39.219005000000000 -76.069733000000000 58962
Mon Oct 19 00:00:00 GMT 2015 robinv1_Washington_College_reporter57 Crape myrtle Lagerstroemia indica Leaves Unfolding (None) 39.219005000000000 -76.069733000000000 58963
Mon Oct 19 00:00:00 GMT 2015 robinv1_Washington_College_reporter57 Crape myrtle Lagerstroemia indica Leaves Changing Color (Early) 39.219005000000000 -76.069733000000000 58964
Mon Oct 19 00:00:00 GMT 2015 robinv1_Washington_College_reporter57 Crape myrtle Lagerstroemia indica Leaves Dropping (None) 39.219005000000000 -76.069733000000000 58965
Mon Oct 19 00:00:00 GMT 2015 robinv1_Washington_College_reporter57 Crape myrtle Lagerstroemia indica Flowers (None) 39.219005000000000 -76.069733000000000 58966
Mon Oct 19 00:00:00 GMT 2015 robinv1_Washington_College_reporter57 Crape myrtle Lagerstroemia indica Fruit (None) 39.219005000000000 -76.069733000000000 58967
Mon Oct 26 00:00:00 GMT 2015 robinv1_Washington_College_reporter57 Crape myrtle Lagerstroemia indica Leaves Unfolding (None) 39.219005000000000 -76.069733000000000 58978
Mon Oct 26 00:00:00 GMT 2015 robinv1_Washington_College_reporter57 Crape myrtle Lagerstroemia indica Leaves Changing Color (Middle) 39.219005000000000 -76.069733000000000 58979
Mon Oct 26 00:00:00 GMT 2015 robinv1_Washington_College_reporter57 Crape myrtle Lagerstroemia indica Leaves Dropping (Early) 39.219005000000000 -76.069733000000000 58980
Mon Oct 26 00:00:00 GMT 2015 robinv1_Washington_College_reporter57 Crape myrtle Lagerstroemia indica Flowers (None) 39.219005000000000 -76.069733000000000 58981
Mon Oct 26 00:00:00 GMT 2015 robinv1_Washington_College_reporter57 Crape myrtle Lagerstroemia indica Fruit (None) 39.219005000000000 -76.069733000000000 58982
Mon Nov 02 00:00:00 GMT 2015 robinv1_Washington_College_reporter57 Crape myrtle Lagerstroemia indica Leaves Unfolding (None) 39.219005000000000 -76.069733000000000 58998
Mon Nov 02 00:00:00 GMT 2015 robinv1_Washington_College_reporter57 Crape myrtle Lagerstroemia indica Leaves Changing Color (Middle) 39.219005000000000 -76.069733000000000 58999
Mon Nov 02 00:00:00 GMT 2015 robinv1_Washington_College_reporter57 Crape myrtle Lagerstroemia indica Leaves Dropping (Early) 39.219005000000000 -76.069733000000000 59000
Mon Nov 02 00:00:00 GMT 2015 robinv1_Washington_College_reporter57 Crape myrtle Lagerstroemia indica Flowers (None) 39.219005000000000 -76.069733000000000 59001
Mon Nov 02 00:00:00 GMT 2015 robinv1_Washington_College_reporter57 Crape myrtle Lagerstroemia indica Fruit (None) 39.219005000000000 -76.069733000000000 59002
Mon Nov 09 00:00:00 GMT 2015 robinv1_Washington_College_reporter57 Crape myrtle Lagerstroemia indica Leaves Unfolding (None) 39.219005000000000 -76.069733000000000 59008
Mon Nov 09 00:00:00 GMT 2015 robinv1_Washington_College_reporter57 Crape myrtle Lagerstroemia indica Leaves Changing Color (Late) 39.219005000000000 -76.069733000000000 59009
Mon Nov 09 00:00:00 GMT 2015 robinv1_Washington_College_reporter57 Crape myrtle Lagerstroemia indica Leaves Dropping (Late) 39.219005000000000 -76.069733000000000 59010
Mon Nov 09 00:00:00 GMT 2015 robinv1_Washington_College_reporter57 Crape myrtle Lagerstroemia indica Flowers (None) 39.219005000000000 -76.069733000000000 59011
Mon Nov 09 00:00:00 GMT 2015 robinv1_Washington_College_reporter57 Crape myrtle Lagerstroemia indica Fruit (None) 39.219005000000000 -76.069733000000000 59012
Mon Nov 30 00:00:00 GMT 2015 robinv1_Washington_College_reporter57 Crape myrtle Lagerstroemia indica Leaves Unfolding (None) 39.219005000000000 -76.069733000000000 59018
Mon Nov 30 00:00:00 GMT 2015 robinv1_Washington_College_reporter57 Crape myrtle Lagerstroemia indica Leaves Changing Color (Late) 39.219005000000000 -76.069733000000000 59019
Mon Nov 30 00:00:00 GMT 2015 robinv1_Washington_College_reporter57 Crape myrtle Lagerstroemia indica Leaves Dropping (Late) 39.219005000000000 -76.069733000000000 59020
Mon Nov 30 00:00:00 GMT 2015 robinv1_Washington_College_reporter57 Crape myrtle Lagerstroemia indica Flowers (None) 39.219005000000000 -76.069733000000000 59021
Mon Nov 30 00:00:00 GMT 2015 robinv1_Washington_College_reporter57 Crape myrtle Lagerstroemia indica Fruit (None) 39.219005000000000 -76.069733000000000 59022
Thu Mar 09 00:00:00 GMT 2017 jeanmells Crape myrtle Lagerstroemia indica Bud Burst 35.797400000000000 -78.634050000000000 75394
Wed Mar 15 00:00:00 GMT 2017 Qrrwgie2 Crape myrtle Lagerstroemia indica Bud Burst 37.800860000000000 -122.210420000000000 75493
Mon Mar 20 00:00:00 GMT 2017 Qrrwgie2 Crape myrtle Lagerstroemia indica First Leaf 37.800860000000000 -122.210420000000000 76037

*All downloadable materials require the free Adobe Reader.